createdAt,value
2022-12-02T00:00:06.277Z,2.94
2022-12-02T00:02:52.316Z,2.63
2022-12-02T00:05:36.684Z,2.67
2022-12-02T00:08:22.629Z,2.25
2022-12-02T00:11:24.255Z,2.23
2022-12-02T00:14:17.881Z,2.18
2022-12-02T00:17:01.798Z,2.00
2022-12-02T00:19:47.113Z,1.83
2022-12-02T00:22:30.979Z,2.17
2022-12-02T00:25:14.892Z,2.22
2022-12-02T00:27:58.834Z,2.03
2022-12-02T00:30:42.944Z,1.96
2022-12-02T00:33:28.499Z,2.23
2022-12-02T00:36:13.686Z,2.40
2022-12-02T00:38:57.720Z,2.42
2022-12-02T00:41:41.569Z,2.43
2022-12-02T00:44:43.060Z,2.55
2022-12-02T00:47:26.822Z,2.60
2022-12-02T00:50:11.924Z,3.12
2022-12-02T00:52:58.669Z,3.43
2022-12-02T00:55:42.409Z,3.21
2022-12-02T00:58:26.203Z,3.60
2022-12-02T01:01:10.145Z,3.53
2022-12-02T01:03:54.038Z,3.50
2022-12-02T01:06:37.741Z,3.44
2022-12-02T01:09:22.815Z,3.12
2022-12-02T01:12:06.665Z,3.28
2022-12-02T01:14:50.827Z,3.27
2022-12-02T01:17:34.790Z,3.41
2022-12-02T01:20:18.764Z,3.04
2022-12-02T01:23:02.576Z,2.73
2022-12-02T01:25:48.684Z,2.38
2022-12-02T01:28:32.587Z,2.51
2022-12-02T01:31:18.272Z,2.54
2022-12-02T01:34:02.291Z,2.53
2022-12-02T01:36:46.260Z,2.68
2022-12-02T01:39:30.256Z,2.64
2022-12-02T01:42:15.859Z,2.56
2022-12-02T01:45:00.068Z,2.40
2022-12-02T01:47:44.337Z,2.64
2022-12-02T01:50:28.476Z,2.88
2022-12-02T01:53:12.792Z,2.99
2022-12-02T01:55:57.112Z,2.56
2022-12-02T01:58:42.563Z,2.30
2022-12-02T02:01:33.304Z,2.61
2022-12-02T02:04:18.559Z,2.54
2022-12-02T02:07:02.655Z,2.74
2022-12-02T02:09:46.589Z,2.79
2022-12-02T02:12:31.502Z,3.06
2022-12-02T02:15:38.777Z,3.54
2022-12-02T02:18:22.896Z,3.56
2022-12-02T02:21:10.251Z,3.49
2022-12-02T02:23:56.059Z,3.52
2022-12-02T02:26:40.459Z,3.68
2022-12-02T02:29:24.970Z,3.62
2022-12-02T02:32:09.182Z,3.45
2022-12-02T02:34:53.337Z,3.59
2022-12-02T02:37:37.611Z,3.75
2022-12-02T02:40:37.456Z,3.19
2022-12-02T02:43:23.096Z,2.96
2022-12-02T02:46:08.885Z,2.90
2022-12-02T02:48:56.073Z,2.85
2022-12-02T02:51:40.221Z,2.92
2022-12-02T02:54:24.713Z,2.97
2022-12-02T02:57:11.488Z,3.14
2022-12-02T02:59:57.985Z,3.12
2022-12-02T03:02:43.537Z,2.77
2022-12-02T03:05:27.565Z,3.11
2022-12-02T03:08:12.400Z,2.82
2022-12-02T03:10:58.346Z,3.15
2022-12-02T03:13:46.461Z,3.25
2022-12-02T03:16:30.798Z,3.35
2022-12-02T03:19:15.351Z,3.18
2022-12-02T03:22:00.023Z,3.56
2022-12-02T03:24:43.896Z,3.08
2022-12-02T03:27:28.932Z,3.01
2022-12-02T03:30:18.042Z,3.02
2022-12-02T03:33:02.334Z,3.11
2022-12-02T03:35:46.397Z,3.18
2022-12-02T03:38:30.539Z,2.74
2022-12-02T03:41:15.459Z,3.18
2022-12-02T03:44:00.214Z,2.94
2022-12-02T03:46:48.145Z,3.06
2022-12-02T03:49:35.638Z,3.01
2022-12-02T03:52:19.367Z,2.97
2022-12-02T03:55:03.450Z,3.60
2022-12-02T03:57:49.065Z,3.73
2022-12-02T04:00:33.312Z,2.76
2022-12-02T04:03:18.562Z,3.83
2022-12-02T04:06:02.348Z,3.37
2022-12-02T04:08:46.343Z,3.46
2022-12-02T04:11:30.122Z,3.66
2022-12-02T04:14:14.362Z,3.77
2022-12-02T04:16:59.839Z,4.02
2022-12-02T04:19:49.138Z,3.78
2022-12-02T04:22:32.919Z,4.03
2022-12-02T04:25:16.827Z,4.03
2022-12-02T04:28:00.626Z,3.89
2022-12-02T04:30:46.140Z,3.63
2022-12-02T04:33:31.676Z,4.11
2022-12-02T04:36:16.948Z,3.82
2022-12-02T04:39:00.827Z,3.92
2022-12-02T04:41:44.852Z,4.12
2022-12-02T04:44:28.786Z,2.59
2022-12-02T04:47:12.623Z,3.63
2022-12-02T04:49:56.361Z,2.78
2022-12-02T04:52:41.567Z,3.50
2022-12-02T04:55:25.293Z,3.39
2022-12-02T04:58:11.141Z,3.36
2022-12-02T05:00:54.971Z,2.84
2022-12-02T05:03:38.718Z,2.61
2022-12-02T05:06:22.416Z,3.25
2022-12-02T05:09:07.542Z,3.13
2022-12-02T05:11:51.250Z,3.55
2022-12-02T05:14:35.223Z,3.28
2022-12-02T05:17:18.981Z,2.21
2022-12-02T05:20:02.824Z,3.41
2022-12-02T05:22:46.988Z,3.39
2022-12-02T05:25:32.855Z,3.68
2022-12-02T05:28:16.642Z,3.15
2022-12-02T05:31:00.371Z,3.22
2022-12-02T05:33:44.110Z,3.41
2022-12-02T05:36:28.202Z,3.35
2022-12-02T05:39:12.327Z,3.08
2022-12-02T05:42:03.245Z,3.43
2022-12-02T05:44:47.393Z,4.00
2022-12-02T05:47:32.137Z,3.99
2022-12-02T05:50:16.653Z,3.64
2022-12-02T05:53:08.544Z,3.97
2022-12-02T05:55:53.371Z,3.91
2022-12-02T05:58:40.919Z,3.24
2022-12-02T06:01:32.631Z,3.29
2022-12-02T06:04:19.347Z,3.84
2022-12-02T06:07:09.858Z,3.45
2022-12-02T06:09:54.860Z,3.48
2022-12-02T06:12:38.566Z,3.63
2022-12-02T06:15:23.860Z,3.44
2022-12-02T06:18:15.068Z,3.67
2022-12-02T06:21:02.056Z,3.92
2022-12-02T06:23:48.447Z,3.89
2022-12-02T06:26:32.598Z,3.87
2022-12-02T06:29:18.981Z,3.58
2022-12-02T06:32:05.782Z,3.75
2022-12-02T06:34:51.218Z,4.05
2022-12-02T06:37:35.272Z,3.48
2022-12-02T06:40:29.374Z,3.53
2022-12-02T06:43:16.782Z,3.11
2022-12-02T06:46:00.594Z,4.15
2022-12-02T06:48:45.795Z,4.27
2022-12-02T06:51:29.676Z,3.52
2022-12-02T06:54:20.988Z,4.10
2022-12-02T06:57:05.988Z,3.70
2022-12-02T06:59:50.834Z,3.78
2022-12-02T07:02:34.665Z,3.93
2022-12-02T07:05:22.295Z,3.76
2022-12-02T07:08:06.178Z,4.00
2022-12-02T07:10:50.279Z,4.00
2022-12-02T07:13:34.090Z,4.12
2022-12-02T07:16:33.540Z,4.30
2022-12-02T07:19:20.110Z,4.32
2022-12-02T07:22:12.787Z,4.01
2022-12-02T07:24:59.976Z,3.70
2022-12-02T07:27:46.829Z,3.18
2022-12-02T07:30:33.264Z,3.82
2022-12-02T07:33:17.165Z,3.42
2022-12-02T07:36:00.904Z,3.56
2022-12-02T07:41:51.504Z,3.66
2022-12-02T07:44:35.254Z,3.52
2022-12-02T07:47:19.002Z,3.68
2022-12-02T07:50:03.230Z,3.12
2022-12-02T07:52:46.994Z,3.64
2022-12-02T07:55:32.136Z,4.06
2022-12-02T07:58:15.886Z,3.11
2022-12-02T08:00:59.760Z,3.40
2022-12-02T08:03:44.018Z,3.30
2022-12-02T08:06:28.266Z,3.00
2022-12-02T08:09:12.354Z,3.81
2022-12-02T08:11:57.501Z,3.98
2022-12-02T08:14:41.430Z,4.12
2022-12-02T08:17:25.432Z,3.54
2022-12-02T08:20:11.799Z,3.67
2022-12-02T08:22:55.619Z,3.39
2022-12-02T08:25:39.693Z,3.19
2022-12-02T08:28:24.824Z,3.08
2022-12-02T08:31:08.717Z,3.04
2022-12-02T08:33:52.786Z,3.47
2022-12-02T08:36:36.659Z,3.55
2022-12-02T08:39:20.497Z,3.23
2022-12-02T08:42:05.087Z,3.50
2022-12-02T08:44:50.493Z,3.96
2022-12-02T08:47:34.488Z,4.11
2022-12-02T08:50:18.462Z,4.25
2022-12-02T08:53:02.226Z,3.92
2022-12-02T08:55:45.980Z,3.74
2022-12-02T08:58:29.713Z,3.73
2022-12-02T09:01:15.040Z,4.07
2022-12-02T09:03:58.821Z,4.17
2022-12-02T09:06:42.875Z,4.18
2022-12-02T09:09:26.744Z,3.92
2022-12-02T09:12:10.551Z,4.38
2022-12-02T09:14:54.441Z,4.93
2022-12-02T09:17:40.382Z,4.98
2022-12-02T09:20:25.299Z,4.62
2022-12-02T09:23:09.234Z,4.26
2022-12-02T09:25:53.012Z,4.79
2022-12-02T09:28:36.770Z,5.10
2022-12-02T09:31:20.716Z,5.07
2022-12-02T09:34:06.415Z,4.84
2022-12-02T09:36:50.226Z,4.52
2022-12-02T09:39:38.502Z,4.64
2022-12-02T09:42:23.322Z,4.54
2022-12-02T09:45:08.079Z,4.35
2022-12-02T09:47:52.236Z,4.45
2022-12-02T09:50:39.558Z,4.86
2022-12-02T09:53:24.889Z,4.69
2022-12-02T09:56:15.248Z,4.72
2022-12-02T09:58:59.302Z,4.16
2022-12-02T10:01:45.240Z,3.87
2022-12-02T10:04:29.338Z,3.46
2022-12-02T10:07:14.845Z,3.29
2022-12-02T10:10:01.622Z,3.61
2022-12-02T10:12:45.984Z,3.99
2022-12-02T10:15:32.147Z,3.72
2022-12-02T10:18:19.584Z,3.68
2022-12-02T10:21:03.555Z,3.86
2022-12-02T10:23:57.813Z,4.34
2022-12-02T10:26:48.163Z,4.38
2022-12-02T10:29:33.682Z,3.83
2022-12-02T10:32:22.486Z,3.35
2022-12-02T10:35:11.105Z,3.47
2022-12-02T10:37:55.218Z,3.86
2022-12-02T10:40:40.711Z,3.99
2022-12-02T10:43:24.742Z,4.81
2022-12-02T10:46:09.031Z,3.90
2022-12-02T10:48:53.170Z,3.62
2022-12-02T10:51:37.171Z,4.32
2022-12-02T10:54:25.545Z,3.78
2022-12-02T10:57:14.768Z,4.06
2022-12-02T11:00:01.164Z,4.05
2022-12-02T11:02:49.034Z,4.51
2022-12-02T11:05:35.552Z,4.49
2022-12-02T11:08:22.646Z,4.85
2022-12-02T11:11:13.347Z,5.29
2022-12-02T11:14:00.966Z,5.48
2022-12-02T11:17:07.959Z,5.01
2022-12-02T11:19:52.135Z,5.47
2022-12-02T11:23:09.035Z,5.10
2022-12-02T11:26:11.526Z,6.30
2022-12-02T11:29:18.316Z,5.31
2022-12-02T11:32:03.608Z,4.80
2022-12-02T11:35:20.421Z,4.97
2022-12-02T11:38:20.116Z,4.13
2022-12-02T11:41:03.857Z,4.16
2022-12-02T11:44:10.386Z,4.17
2022-12-02T11:46:57.157Z,3.75
2022-12-02T11:49:49.770Z,4.65
2022-12-02T11:52:33.672Z,5.41
2022-12-02T11:55:20.287Z,4.94
2022-12-02T11:58:05.543Z,4.09
2022-12-02T12:01:02.607Z,4.29
2022-12-02T12:03:49.145Z,4.17
2022-12-02T12:06:34.969Z,4.74
2022-12-02T12:09:19.926Z,5.08
2022-12-02T12:12:14.676Z,4.06
2022-12-02T12:15:01.208Z,4.81
2022-12-02T12:17:47.483Z,4.24
2022-12-02T12:20:46.138Z,4.34
2022-12-02T12:23:32.179Z,4.47
2022-12-02T12:26:33.373Z,4.25
2022-12-02T12:29:17.818Z,4.66
2022-12-02T12:32:02.688Z,5.04
2022-12-02T12:34:47.300Z,5.52
2022-12-02T12:37:32.512Z,5.15
2022-12-02T12:40:16.881Z,3.89
2022-12-02T12:43:00.592Z,3.78
2022-12-02T12:45:44.453Z,4.18
2022-12-02T12:48:28.271Z,4.97
2022-12-02T12:51:12.288Z,5.07
2022-12-02T12:53:57.664Z,4.68
2022-12-02T12:56:41.673Z,4.17
2022-12-02T12:59:25.754Z,5.01
2022-12-02T13:02:10.430Z,4.79
2022-12-02T13:04:54.779Z,5.26
2022-12-02T13:07:38.984Z,5.30
2022-12-02T13:10:25.024Z,5.01
2022-12-02T13:13:09.251Z,4.91
2022-12-02T13:15:53.393Z,5.54
2022-12-02T13:18:37.574Z,4.92
2022-12-02T13:21:21.641Z,5.08
2022-12-02T13:24:06.050Z,4.70
2022-12-02T13:26:51.466Z,4.34
2022-12-02T13:29:35.432Z,3.97
2022-12-02T13:32:19.520Z,3.50
2022-12-02T13:35:03.683Z,3.67
2022-12-02T13:37:47.864Z,3.99
2022-12-02T13:40:31.855Z,3.31
2022-12-02T13:43:17.299Z,3.38
2022-12-02T13:46:01.418Z,2.76
2022-12-02T13:48:45.493Z,3.48
2022-12-02T13:51:29.497Z,3.14
2022-12-02T13:54:13.470Z,2.96
2022-12-02T13:56:57.498Z,3.39
2022-12-02T13:59:42.932Z,2.90
2022-12-02T14:02:27.129Z,3.54
2022-12-02T14:05:11.812Z,4.09
2022-12-02T14:07:55.811Z,4.31
2022-12-02T14:10:39.755Z,3.90
2022-12-02T14:13:23.785Z,4.38
2022-12-02T14:16:09.985Z,4.43
2022-12-02T14:18:57.340Z,4.86
2022-12-02T14:21:41.953Z,4.57
2022-12-02T14:24:25.999Z,4.35
2022-12-02T14:27:10.017Z,4.82
2022-12-02T14:29:54.092Z,3.67
2022-12-02T14:32:39.481Z,3.98
2022-12-02T14:35:23.459Z,4.13
2022-12-02T14:38:07.629Z,4.22
2022-12-02T14:40:51.811Z,4.00
2022-12-02T14:43:35.728Z,3.21
2022-12-02T14:46:19.820Z,3.57
2022-12-02T14:49:38.302Z,3.69
2022-12-02T14:52:09.639Z,4.32
2022-12-02T14:54:53.815Z,3.98
2022-12-02T14:57:37.876Z,3.62
2022-12-02T15:00:22.213Z,3.11
2022-12-02T15:03:06.126Z,3.69
2022-12-02T15:05:51.679Z,3.46
2022-12-02T15:08:35.706Z,3.84
2022-12-02T15:11:19.693Z,4.30
2022-12-02T15:14:03.788Z,4.23
2022-12-02T15:16:48.074Z,3.57
2022-12-02T15:19:34.661Z,3.43
2022-12-02T15:22:22.285Z,3.23
2022-12-02T15:25:07.025Z,3.49
2022-12-02T15:27:50.840Z,4.05
2022-12-02T15:30:34.668Z,3.99
2022-12-02T15:33:18.545Z,2.77
2022-12-02T15:36:02.773Z,3.83
2022-12-02T15:38:47.934Z,3.04
2022-12-02T15:41:31.673Z,3.63
2022-12-02T15:44:15.494Z,3.58
2022-12-02T15:46:59.295Z,3.50
2022-12-02T15:49:43.054Z,3.97
2022-12-02T15:52:26.877Z,4.12
2022-12-02T15:55:13.422Z,4.30
2022-12-02T15:57:57.272Z,3.97
2022-12-02T16:00:41.155Z,3.51
2022-12-02T16:03:25.227Z,3.39
2022-12-02T16:06:09.613Z,3.31
2022-12-02T16:08:55.691Z,4.07
2022-12-02T16:11:43.474Z,4.02
2022-12-02T16:14:27.312Z,3.69
2022-12-02T16:17:11.178Z,3.94
2022-12-02T16:19:54.937Z,3.49
2022-12-02T16:22:38.696Z,3.51
2022-12-02T16:25:22.516Z,3.83
2022-12-02T16:28:07.790Z,3.80
2022-12-02T16:30:51.656Z,3.26
2022-12-02T16:33:35.320Z,4.03
2022-12-02T16:36:19.062Z,4.31
2022-12-02T16:39:02.862Z,4.03
2022-12-02T16:41:49.622Z,4.34
2022-12-02T16:44:37.033Z,4.41
2022-12-02T16:47:20.888Z,4.00
2022-12-02T16:50:05.113Z,4.37
2022-12-02T16:52:49.289Z,4.29
2022-12-02T16:55:33.060Z,4.09
2022-12-02T16:58:17.041Z,3.60
2022-12-02T17:01:02.248Z,2.90
2022-12-02T17:03:46.135Z,3.06
2022-12-02T17:06:29.951Z,3.12
2022-12-02T17:09:14.002Z,3.56
2022-12-02T17:11:57.852Z,3.64
2022-12-02T17:14:41.656Z,3.81
2022-12-02T17:20:30.698Z,3.86
2022-12-02T17:23:14.517Z,3.93
2022-12-02T17:25:58.270Z,3.99
2022-12-02T17:28:42.029Z,3.77
2022-12-02T17:31:25.880Z,3.64
2022-12-02T17:34:12.214Z,2.42
2022-12-02T17:36:56.245Z,3.69
2022-12-02T17:39:40.116Z,3.64
2022-12-02T17:42:24.068Z,3.19
2022-12-02T17:45:08.706Z,3.08
2022-12-02T17:47:52.559Z,3.10
2022-12-02T17:50:37.669Z,3.67
2022-12-02T17:53:21.775Z,3.49
2022-12-02T17:56:05.978Z,3.42
2022-12-02T17:58:49.808Z,3.07
2022-12-02T18:01:33.872Z,3.02
2022-12-02T18:04:18.452Z,3.09
2022-12-02T18:07:09.668Z,3.33
2022-12-02T18:09:54.272Z,3.66
2022-12-02T18:12:38.277Z,3.60
2022-12-02T18:15:22.399Z,3.36
2022-12-02T18:18:06.742Z,3.10
2022-12-02T18:20:50.862Z,2.57
2022-12-02T18:23:36.394Z,2.78
2022-12-02T18:26:20.461Z,3.17
2022-12-02T18:29:04.566Z,2.68
2022-12-02T18:31:48.636Z,3.14
2022-12-02T18:34:32.683Z,2.75
2022-12-02T18:37:16.847Z,3.36
2022-12-02T18:40:02.390Z,3.45
2022-12-02T18:42:48.811Z,3.63
2022-12-02T18:45:32.959Z,3.42
2022-12-02T18:48:17.050Z,3.38
2022-12-02T18:51:01.640Z,3.23
2022-12-02T18:53:45.870Z,3.99
2022-12-02T18:56:31.428Z,3.73
2022-12-02T18:59:15.443Z,3.54
2022-12-02T19:01:59.287Z,3.22
2022-12-02T19:04:43.180Z,3.67
2022-12-02T19:07:27.020Z,3.68
2022-12-02T19:10:11.957Z,3.49
2022-12-02T19:12:58.027Z,3.96
2022-12-02T19:15:41.827Z,3.29
2022-12-02T19:18:25.727Z,3.48
2022-12-02T19:21:09.728Z,4.11
2022-12-02T19:23:53.710Z,4.25
2022-12-02T19:26:37.459Z,3.72
2022-12-02T19:29:22.904Z,3.55
2022-12-02T19:32:06.869Z,3.38
2022-12-02T19:34:51.128Z,3.59
2022-12-02T19:37:35.408Z,2.92
2022-12-02T19:40:19.526Z,2.93
2022-12-02T19:43:03.605Z,3.31
2022-12-02T19:45:49.071Z,3.84
2022-12-02T19:48:32.968Z,2.52
2022-12-02T19:51:16.710Z,3.01
2022-12-02T19:54:00.375Z,3.18
2022-12-02T19:56:44.207Z,3.76
2022-12-02T19:59:28.074Z,3.78
2022-12-02T20:02:13.182Z,3.99
2022-12-02T20:04:57.410Z,3.60
2022-12-02T20:07:41.618Z,3.48
2022-12-02T20:10:25.525Z,4.09
2022-12-02T20:13:09.382Z,4.14
2022-12-02T20:15:58.048Z,4.44
2022-12-02T20:18:43.901Z,4.18
2022-12-02T20:21:27.807Z,4.10
2022-12-02T20:24:11.513Z,3.74
2022-12-02T20:26:55.782Z,3.95
2022-12-02T20:29:39.684Z,4.05
2022-12-02T20:32:23.561Z,3.52
2022-12-02T20:35:09.597Z,3.42
2022-12-02T20:37:53.414Z,4.00
2022-12-02T20:40:37.310Z,4.28
2022-12-02T20:43:21.367Z,4.40
2022-12-02T20:46:05.420Z,3.56
2022-12-02T20:48:49.452Z,4.29
2022-12-02T20:51:34.997Z,3.81
2022-12-02T20:54:19.188Z,4.09
2022-12-02T20:57:03.059Z,4.20
2022-12-02T20:59:46.843Z,4.22
2022-12-02T21:02:30.666Z,4.22
2022-12-02T21:05:14.589Z,4.28
2022-12-02T21:07:59.795Z,3.75
2022-12-02T21:10:43.537Z,3.52
2022-12-02T21:13:27.298Z,3.56
2022-12-02T21:16:11.214Z,3.48
2022-12-02T21:18:54.993Z,3.13
2022-12-02T21:21:38.819Z,3.19
2022-12-02T21:24:23.996Z,3.35
2022-12-02T21:27:07.732Z,3.60
2022-12-02T21:29:51.647Z,3.37
2022-12-02T21:32:35.579Z,3.14
2022-12-02T21:35:19.344Z,2.76
2022-12-02T21:38:03.069Z,2.67
2022-12-02T21:40:48.325Z,2.94
2022-12-02T21:43:32.172Z,2.90
2022-12-02T21:46:16.023Z,2.89
2022-12-02T21:49:00.030Z,2.60
2022-12-02T21:51:44.105Z,2.13
2022-12-02T21:54:28.251Z,3.10
2022-12-02T21:57:13.824Z,2.70
2022-12-02T21:59:57.968Z,3.05
2022-12-02T22:02:41.840Z,3.15
2022-12-02T22:05:25.798Z,3.01
2022-12-02T22:08:09.878Z,3.09
2022-12-02T22:10:53.737Z,2.87
2022-12-02T22:13:39.182Z,3.42
2022-12-02T22:16:23.239Z,3.17
2022-12-02T22:19:11.761Z,3.18
2022-12-02T22:21:58.446Z,2.47
2022-12-02T22:24:42.253Z,2.44
2022-12-02T22:27:26.364Z,2.47
2022-12-02T22:30:12.672Z,2.63
2022-12-02T22:32:56.677Z,2.89
2022-12-02T22:35:40.488Z,3.02
2022-12-02T22:38:24.289Z,2.82
2022-12-02T22:41:08.002Z,3.16
2022-12-02T22:43:51.918Z,3.00
2022-12-02T22:46:39.760Z,3.00
2022-12-02T22:49:23.546Z,3.09
2022-12-02T22:52:07.533Z,3.50
2022-12-02T22:54:51.597Z,3.46
2022-12-02T22:57:35.824Z,3.62
2022-12-02T23:00:19.866Z,3.39
2022-12-02T23:03:05.299Z,3.62
2022-12-02T23:05:49.111Z,3.54
2022-12-02T23:08:32.905Z,2.90
2022-12-02T23:11:17.029Z,2.90
2022-12-02T23:14:00.735Z,2.78
2022-12-02T23:16:44.502Z,2.58
2022-12-02T23:19:29.697Z,3.02
2022-12-02T23:22:13.365Z,2.85
2022-12-02T23:24:57.145Z,2.81
2022-12-02T23:27:40.874Z,2.79
2022-12-02T23:30:28.840Z,2.70
2022-12-02T23:33:13.473Z,2.56
2022-12-02T23:35:58.615Z,2.62
2022-12-02T23:38:42.544Z,2.64
2022-12-02T23:41:26.378Z,2.85
2022-12-02T23:44:10.249Z,3.30
2022-12-02T23:46:53.982Z,2.90
2022-12-02T23:49:37.668Z,2.98
2022-12-02T23:52:22.758Z,3.11
2022-12-02T23:55:07.542Z,3.14
2022-12-02T23:57:51.390Z,3.07
